SBRF/REC METAR and TAF weather

Enter ICAO airport designator
Station Type Date Time Source
SBRF METAR 2021/08/02 03:00 UTC NOAA

SBRF 020300Z 21008KT 9999 SCT020 23/20 Q1019


Station Type Date Time Source
SBRF Decoded METAR 2021/08/02 03:00 UTC NOAA

Recife Aeroporto , Brazil (SBRF) 08-04S 034-51W
Aug 01, 2021 - 11:00 PM EDT / 2021.08.02 0300 UTC
Wind: from the SSW (210 degrees) at 9 MPH (8 KT):0
Visibility: greater than 7 mile(s):0
Sky conditions: partly cloudy
Temperature: 73 F (23 C)
Dew Point: 68 F (20 C)
Relative Humidity: 83%
Pressure (altimeter): 30.09 in. Hg (1019 hPa)
ob: SBRF 020300Z 21008KT 9999 SCT020 23/20 Q1019
cycle: 3

Station Type Date Time Source
SBRF TAF 2021/08/02 00:00 UTC NOAA

TAF SBRF 022038Z 0200/0224 21007KT 8000 BKN023 TN21/0209Z TX27/0216Z
TEMPO 0203/0210 4000 RA BR BKN010
BECMG 0210/0212 15013KT
TEMPO 0214/0221 4000 RA BKN012 FEW023TCU
BECMG 0222/0224 21007KT
RMK PHI

Example: see airport list